Time;durP1;ratioP1;P1;durP2;ratioP2;P2;SDS_P1;SDS_P2;PMS_P1;PMS_P2;Temp;Humidity;BMP_temperature;BMP_pressure;BME280_temperature;BME280_humidity;BME280_pressure;Samples;Min_cycle;Max_cycle;Signal;HPM_P1;HPM_P2
2023/04/10 00:02:13;;;;;;;28.25;16.63;;;10.80;99.90;;;;;;5014134;28;20107;-48
2023/04/10 00:04:38;;;;;;;26.45;16.65;;;10.80;99.90;;;;;;5014005;28;20037;-49
2023/04/10 00:07:04;;;;;;;25.40;15.95;;;10.80;99.90;;;;;;5015465;28;20419;-45
2023/04/10 00:09:30;;;;;;;24.50;15.30;;;10.80;99.90;;;;;;5014012;28;20045;-47
2023/04/10 00:11:56;;;;;;;22.88;14.07;;;10.80;99.90;;;;;;5013072;28;20057;-46
2023/04/10 00:14:22;;;;;;;24.80;14.60;;;10.80;99.90;;;;;;5014129;28;20105;-45
2023/04/10 00:16:48;;;;;;;20.95;13.73;;;10.80;99.90;;;;;;5013995;28;20026;-46
2023/04/10 00:19:14;;;;;;;23.30;13.55;;;10.80;99.90;;;;;;5013928;28;20098;-48
2023/04/10 00:21:40;;;;;;;23.27;13.65;;;10.80;99.90;;;;;;5013534;28;20120;-54
2023/04/10 00:24:06;;;;;;;23.48;13.90;;;10.80;99.90;;;;;;5013799;28;20101;-47
2023/04/10 00:26:33;;;;;;;24.33;14.18;;;10.80;99.90;;;;;;5013247;28;20591;-45
2023/04/10 00:28:59;;;;;;;21.17;12.50;;;10.80;99.90;;;;;;5013510;28;20076;-45
2023/04/10 00:31:24;;;;;;;21.25;12.30;;;10.80;99.90;;;;;;5013581;28;20047;-49
2023/04/10 00:33:50;;;;;;;17.48;11.27;;;10.90;99.90;;;;;;5013568;28;20026;-44
2023/04/10 00:36:17;;;;;;;18.48;10.68;;;11.00;99.90;;;;;;5013799;28;20022;-45
2023/04/10 00:38:43;;;;;;;16.83;10.48;;;11.10;99.90;;;;;;5013618;28;20072;-45
2023/04/10 00:41:08;;;;;;;17.60;10.02;;;11.10;99.90;;;;;;5012278;28;20018;-49
2023/04/10 00:43:34;;;;;;;13.38;8.63;;;11.20;99.90;;;;;;5013593;28;20030;-45
2023/04/10 00:46:00;;;;;;;14.52;9.10;;;11.20;99.90;;;;;;5011861;28;20161;-48
2023/04/10 00:48:26;;;;;;;15.40;8.82;;;11.30;99.90;;;;;;5013553;28;20105;-48
2023/04/10 00:50:52;;;;;;;11.68;8.15;;;11.30;99.90;;;;;;5013508;28;20176;-47
2023/04/10 00:53:17;;;;;;;14.95;8.15;;;11.30;99.90;;;;;;5013327;28;20049;-48
2023/04/10 00:55:44;;;;;;;11.88;7.00;;;11.40;99.90;;;;;;5013063;28;20131;-47
2023/04/10 00:58:13;;;;;;;11.00;7.10;;;11.50;99.90;;;;;;5012830;28;20144;-51
2023/04/10 01:00:40;;;;;;;11.57;7.03;;;11.60;99.90;;;;;;5013258;28;20037;-48
2023/04/10 01:03:07;;;;;;;14.50;6.65;;;11.70;99.90;;;;;;5012881;28;20029;-45
2023/04/10 01:05:40;;;;;;;11.68;5.88;;;11.70;99.90;;;;;;5013117;28;20045;-45
2023/04/10 01:08:31;;;;;;;9.48;5.38;;;11.80;99.90;;;;;;5011893;28;20061;-48
2023/04/10 01:11:12;;;;;;;10.40;5.53;;;12.00;99.90;;;;;;5028180;28;20034;-55
2023/04/10 01:13:50;;;;;;;11.68;5.75;;;12.10;99.90;;;;;;5001116;28;20034;-47
2023/04/10 01:16:45;;;;;;;12.15;6.03;;;12.20;99.90;;;;;;5012743;28;20038;-45
2023/04/10 01:19:35;;;;;;;10.75;5.20;;;12.30;99.90;;;;;;5007967;28;20099;-45
2023/04/10 01:22:04;;;;;;;13.38;5.93;;;12.30;99.90;;;;;;5012629;28;20014;-55
2023/04/10 01:24:59;;;;;;;8.60;5.85;;;12.30;99.90;;;;;;5012825;28;20453;-47
2023/04/10 01:27:42;;;;;;;13.93;6.60;;;12.30;99.90;;;;;;5012509;28;20034;-47
2023/04/10 01:30:13;;;;;;;10.82;6.35;;;12.30;99.90;;;;;;5012726;28;20030;-46
2023/04/10 01:32:40;;;;;;;11.80;6.28;;;12.20;99.90;;;;;;5011162;28;20064;-48
2023/04/10 01:35:07;;;;;;;9.93;6.28;;;12.20;99.90;;;;;;5012389;28;20481;-46
2023/04/10 01:37:37;;;;;;;12.10;6.25;;;12.20;99.90;;;;;;5012344;28;20018;-44
2023/04/10 01:40:08;;;;;;;9.48;6.15;;;12.10;99.90;;;;;;5012283;28;20034;-47
2023/04/10 01:42:38;;;;;;;13.10;6.30;;;12.10;99.90;;;;;;5010851;28;20026;-49
2023/04/10 01:45:07;;;;;;;13.15;6.13;;;12.10;99.90;;;;;;5012312;28;20392;-47
2023/04/10 01:47:34;;;;;;;15.30;6.50;;;12.00;99.90;;;;;;5012025;28;20440;-44
2023/04/10 01:50:00;;;;;;;13.77;6.15;;;12.00;99.90;;;;;;5012295;28;20090;-51
2023/04/10 01:52:27;;;;;;;14.25;6.47;;;11.90;99.90;;;;;;5012029;28;20026;-45
2023/04/10 01:54:53;;;;;;;12.10;6.13;;;11.90;99.90;;;;;;5010973;28;20054;-47
2023/04/10 01:57:20;;;;;;;9.98;6.35;;;11.80;99.90;;;;;;5011813;28;20083;-47
2023/04/10 01:59:46;;;;;;;10.05;5.90;;;11.80;99.90;;;;;;5012044;28;20468;-45
2023/04/10 02:02:12;;;;;;;16.38;6.25;;;11.80;99.90;;;;;;5011669;28;20040;-47
2023/04/10 02:04:37;;;;;;;11.35;7.10;;;11.70;99.90;;;;;;5011779;28;20029;-46
2023/04/10 02:07:09;;;;;;;14.40;6.82;;;11.70;99.90;;;;;;5011845;28;20052;-49
2023/04/10 02:09:49;;;;;;;12.18;6.60;;;11.70;99.90;;;;;;5011941;28;20091;-47
2023/04/10 02:12:21;;;;;;;15.80;6.47;;;11.60;99.90;;;;;;5011735;28;20029;-46
2023/04/10 02:14:49;;;;;;;10.32;6.10;;;11.60;99.90;;;;;;5011718;28;20037;-48
2023/04/10 02:17:19;;;;;;;12.00;6.25;;;11.60;99.90;;;;;;5011764;28;20113;-45
2023/04/10 02:19:47;;;;;;;12.65;6.43;;;11.60;99.90;;;;;;5011573;28;20033;-48
2023/04/10 02:22:14;;;;;;;15.35;6.35;;;11.50;99.90;;;;;;5011502;28;20030;-45
2023/04/10 02:24:40;;;;;;;15.93;7.00;;;11.50;99.90;;;;;;5011634;28;20381;-45
2023/04/10 02:27:06;;;;;;;13.75;6.32;;;11.50;99.90;;;;;;5011308;28;20026;-48
2023/04/10 02:29:31;;;;;;;12.85;6.30;;;11.50;99.90;;;;;;5010417;28;20026;-52
2023/04/10 02:31:57;;;;;;;14.77;6.57;;;11.50;99.90;;;;;;5010892;28;20095;-44
2023/04/10 02:34:22;;;;;;;15.93;6.80;;;11.50;99.90;;;;;;5011496;28;20032;-45
2023/04/10 02:36:48;;;;;;;18.38;7.63;;;11.40;99.90;;;;;;5010661;28;20032;-44
2023/04/10 02:39:14;;;;;;;12.25;6.90;;;11.40;99.90;;;;;;5011429;28;20037;-46
2023/04/10 02:41:39;;;;;;;14.85;6.93;;;11.40;99.90;;;;;;5011276;28;20046;-46
2023/04/10 02:44:05;;;;;;;16.23;7.38;;;11.40;99.90;;;;;;5011407;28;20105;-47
2023/04/10 02:46:31;;;;;;;13.73;7.57;;;11.40;99.90;;;;;;5011001;28;20034;-44
2023/04/10 02:48:58;;;;;;;13.80;6.65;;;11.40;99.90;;;;;;5011259;28;20388;-47
2023/04/10 02:51:23;;;;;;;12.93;7.13;;;11.30;99.90;;;;;;5011012;28;20500;-46
2023/04/10 02:53:49;;;;;;;11.80;7.03;;;11.30;99.90;;;;;;5009908;28;20022;-44
2023/04/10 02:56:15;;;;;;;15.75;7.07;;;11.40;99.90;;;;;;5010771;28;20050;-45
2023/04/10 02:58:44;;;;;;;14.57;7.43;;;11.40;99.90;;;;;;5011341;28;20017;-46
2023/04/10 03:01:10;;;;;;;15.38;7.55;;;11.30;99.90;;;;;;5010940;28;20091;-46
2023/04/10 03:03:35;;;;;;;14.10;7.47;;;11.20;99.90;;;;;;5011193;28;20362;-44
2023/04/10 03:06:01;;;;;;;14.30;7.00;;;11.20;99.90;;;;;;5010595;28;20429;-45
2023/04/10 03:08:26;;;;;;;14.93;7.38;;;11.20;99.90;;;;;;5010987;28;20054;-46
2023/04/10 03:10:52;;;;;;;18.88;8.38;;;11.10;99.90;;;;;;5011049;28;20113;-45
2023/04/10 03:13:18;;;;;;;16.15;7.97;;;11.10;99.90;;;;;;5010864;28;20048;-49
2023/04/10 03:15:43;;;;;;;16.05;8.13;;;11.00;99.90;;;;;;5011173;28;20033;-43
2023/04/10 03:18:09;;;;;;;17.52;7.32;;;11.10;99.90;;;;;;5010782;28;20038;-46
2023/04/10 03:20:38;;;;;;;14.38;7.35;;;11.00;99.90;;;;;;5010997;28;20029;-48
2023/04/10 03:23:05;;;;;;;17.80;7.40;;;11.10;99.90;;;;;;5010867;28;20022;-47
2023/04/10 03:25:33;;;;;;;13.90;7.10;;;11.10;99.90;;;;;;5010717;28;20038;-44
2023/04/10 03:27:59;;;;;;;14.77;6.85;;;11.10;99.90;;;;;;5010684;28;20026;-48
2023/04/10 03:30:25;;;;;;;14.85;7.43;;;11.10;99.90;;;;;;5010843;28;20033;-48
2023/04/10 03:32:50;;;;;;;12.45;7.13;;;11.00;99.90;;;;;;5013074;28;20057;-47
2023/04/10 03:35:16;;;;;;;15.75;8.00;;;11.00;99.90;;;;;;5014723;28;20496;-49
2023/04/10 03:37:42;;;;;;;15.45;7.68;;;11.00;99.90;;;;;;5014595;28;20105;-49
2023/04/10 03:40:08;;;;;;;15.52;8.43;;;11.00;99.90;;;;;;5014890;28;20033;-49
2023/04/10 03:42:34;;;;;;;16.23;7.80;;;11.00;99.90;;;;;;5013009;28;20028;-45
2023/04/10 03:45:03;;;;;;;15.45;7.60;;;11.00;99.90;;;;;;5014622;28;20041;-45
2023/04/10 03:47:29;;;;;;;17.80;7.68;;;11.00;99.90;;;;;;5014574;28;20026;-45
2023/04/10 03:49:55;;;;;;;16.58;8.73;;;11.00;99.90;;;;;;5014568;28;20030;-44
2023/04/10 03:52:21;;;;;;;15.90;8.07;;;11.00;99.90;;;;;;5014498;28;20022;-44
2023/04/10 03:54:47;;;;;;;18.33;8.32;;;11.00;99.90;;;;;;5013183;28;20105;-47
2023/04/10 03:57:12;;;;;;;20.25;8.70;;;11.00;99.90;;;;;;5014211;28;20460;-44
2023/04/10 03:59:38;;;;;;;20.00;8.82;;;11.00;99.90;;;;;;5014523;28;20100;-45
2023/04/10 04:02:05;;;;;;;18.60;8.60;;;11.00;99.90;;;;;;5014046;28;20029;-45
2023/04/10 04:04:30;;;;;;;17.38;8.05;;;11.00;99.90;;;;;;5014030;28;20026;-50
2023/04/10 04:06:56;;;;;;;24.83;9.73;;;11.00;99.90;;;;;;5013046;28;20041;-45
2023/04/10 04:09:22;;;;;;;18.40;8.60;;;10.90;99.90;;;;;;5013979;28;20080;-45
2023/04/10 04:11:47;;;;;;;18.30;9.90;;;10.90;99.90;;;;;;5014014;28;20032;-51
2023/04/10 04:14:13;;;;;;;17.10;8.63;;;10.80;99.90;;;;;;5014080;28;20030;-44
2023/04/10 04:16:38;;;;;;;18.13;10.10;;;10.90;99.90;;;;;;5014161;28;20495;-55
2023/04/10 04:19:04;;;;;;;18.63;9.32;;;10.90;99.90;;;;;;5014045;28;20072;-44
2023/04/10 04:21:30;;;;;;;20.58;9.07;;;10.90;99.90;;;;;;5013369;28;20072;-48
2023/04/10 04:23:55;;;;;;;21.20;10.00;;;10.90;99.90;;;;;;5014066;28;20076;-47
2023/04/10 04:26:23;;;;;;;20.52;10.15;;;10.90;99.90;;;;;;5013832;28;20033;-47
2023/04/10 04:28:49;;;;;;;16.65;9.65;;;10.90;99.90;;;;;;5012555;28;20407;-49
2023/04/10 04:31:15;;;;;;;19.67;10.02;;;10.90;99.90;;;;;;5013850;28;20428;-45
2023/04/10 04:33:40;;;;;;;22.15;9.85;;;10.90;99.90;;;;;;5013689;28;20030;-46
2023/04/10 04:36:06;;;;;;;18.98;10.20;;;10.90;99.90;;;;;;5013730;28;20544;-48
2023/04/10 04:38:32;;;;;;;21.63;10.93;;;10.80;99.90;;;;;;5013734;28;20033;-43
2023/04/10 04:40:58;;;;;;;24.35;11.50;;;10.80;99.90;;;;;;5013564;28;20032;-43
2023/04/10 04:43:23;;;;;;;19.73;11.48;;;10.70;99.90;;;;;;5013291;28;20030;-43
2023/04/10 04:45:49;;;;;;;21.63;12.02;;;10.70;99.90;;;;;;5013150;28;20121;-43
2023/04/10 04:48:15;;;;;;;21.98;12.63;;;10.70;99.90;;;;;;5013440;28;20417;-44
2023/04/10 04:50:40;;;;;;;27.13;13.00;;;10.70;99.90;;;;;;5013553;28;20033;-43
2023/04/10 04:53:07;;;;;;;24.65;12.77;;;10.70;99.90;;;;;;5013386;28;20041;-45
2023/04/10 04:55:33;;;;;;;24.05;13.32;;;10.60;99.90;;;;;;5013250;28;20061;-43
2023/04/10 04:57:59;;;;;;;26.73;14.15;;;10.60;99.90;;;;;;5013302;28;20018;-45
2023/04/10 05:00:24;;;;;;;25.58;13.82;;;10.60;99.90;;;;;;5013285;28;20108;-45
2023/04/10 05:02:50;;;;;;;27.25;14.18;;;10.60;99.90;;;;;;5013094;28;20485;-44
2023/04/10 05:05:16;;;;;;;28.73;14.27;;;10.60;99.90;;;;;;5013042;28;20040;-49
2023/04/10 05:07:41;;;;;;;31.13;13.57;;;10.60;99.90;;;;;;5012934;28;20022;-42
2023/04/10 05:10:07;;;;;;;25.38;13.80;;;10.50;99.90;;;;;;5013055;28;20065;-43
2023/04/10 05:12:33;;;;;;;23.92;13.70;;;10.50;99.90;;;;;;5012716;28;20075;-48
2023/04/10 05:14:59;;;;;;;23.30;12.90;;;10.50;99.90;;;;;;5012874;28;20034;-43
2023/04/10 05:17:25;;;;;;;25.15;12.88;;;10.60;99.90;;;;;;5012879;28;20507;-46
2023/04/10 05:19:50;;;;;;;22.42;13.07;;;10.60;99.90;;;;;;5011753;28;20021;-43
2023/04/10 05:22:16;;;;;;;21.23;12.05;;;10.60;99.90;;;;;;5011586;28;20068;-43
2023/04/10 05:24:41;;;;;;;23.35;12.77;;;10.60;99.90;;;;;;5012829;28;20122;-47
2023/04/10 05:27:07;;;;;;;21.42;13.70;;;10.60;99.90;;;;;;5012703;28;20034;-45
2023/04/10 05:29:33;;;;;;;24.30;14.07;;;10.60;99.90;;;;;;5012862;28;20436;-42
2023/04/10 05:31:59;;;;;;;23.27;13.32;;;10.60;99.90;;;;;;5012520;28;20029;-42
2023/04/10 05:34:24;;;;;;;25.40;14.45;;;10.60;99.90;;;;;;5012885;28;20022;-47
2023/04/10 05:36:50;;;;;;;25.65;14.90;;;10.60;99.90;;;;;;5012531;28;20508;-45
2023/04/10 05:39:16;;;;;;;25.00;14.13;;;10.60;99.90;;;;;;5012695;28;20063;-45
2023/04/10 05:41:41;;;;;;;25.48;15.20;;;10.60;99.90;;;;;;5012228;28;20416;-42
2023/04/10 05:44:07;;;;;;;30.17;15.80;;;10.60;99.90;;;;;;5012414;28;20033;-46
2023/04/10 05:46:33;;;;;;;34.38;16.27;;;10.60;99.90;;;;;;5012365;28;20135;-46
2023/04/10 05:48:59;;;;;;;28.85;15.57;;;10.60;99.90;;;;;;5012274;28;20920;-44
2023/04/10 05:51:25;;;;;;;28.67;15.93;;;10.60;99.90;;;;;;5012262;28;20037;-47
2023/04/10 05:53:50;;;;;;;27.25;15.75;;;10.60;99.90;;;;;;5010524;28;20072;-45
2023/04/10 05:56:16;;;;;;;29.88;17.70;;;10.60;99.90;;;;;;5010674;28;20045;-47
2023/04/10 05:58:42;;;;;;;32.83;17.63;;;10.60;99.90;;;;;;5012194;28;20366;-49
2023/04/10 06:01:07;;;;;;;31.35;18.40;;;10.60;99.90;;;;;;5011841;28;20399;-49
2023/04/10 06:03:33;;;;;;;32.88;17.95;;;10.70;99.90;;;;;;5011998;28;20030;-43
2023/04/10 06:06:01;;;;;;;32.65;18.27;;;10.70;99.90;;;;;;5011594;28;20057;-44
2023/04/10 06:08:27;;;;;;;32.95;18.55;;;10.70;99.90;;;;;;5011974;28;20040;-45
2023/04/10 06:10:53;;;;;;;35.72;19.83;;;10.80;99.90;;;;;;5011656;28;20105;-43
2023/04/10 06:13:18;;;;;;;32.97;19.00;;;10.80;99.90;;;;;;5011625;28;20025;-50
2023/04/10 06:15:44;;;;;;;35.17;20.00;;;10.80;99.90;;;;;;5011803;28;20097;-47
2023/04/10 06:18:10;;;;;;;33.63;19.50;;;10.80;99.90;;;;;;5011594;28;20014;-44
2023/04/10 06:20:36;;;;;;;34.50;18.58;;;10.80;99.90;;;;;;5011925;28;20420;-44
2023/04/10 06:23:02;;;;;;;35.00;18.08;;;10.80;99.90;;;;;;5011621;28;20504;-47
2023/04/10 06:25:27;;;;;;;34.78;18.33;;;10.80;99.90;;;;;;5011427;28;20030;-47
2023/04/10 06:27:53;;;;;;;34.17;18.50;;;10.80;99.90;;;;;;5011675;28;20026;-52
2023/04/10 06:30:19;;;;;;;29.88;17.08;;;10.80;99.90;;;;;;5011465;28;20472;-50
2023/04/10 06:32:45;;;;;;;25.60;16.00;;;10.90;99.90;;;;;;5011513;28;20030;-46
2023/04/10 06:35:10;;;;;;;24.10;15.00;;;10.90;99.90;;;;;;5011438;28;20104;-51
2023/04/10 06:37:36;;;;;;;26.77;14.20;;;10.90;99.90;;;;;;5011610;28;20018;-49
2023/04/10 06:40:07;;;;;;;24.35;14.63;;;11.00;99.90;;;;;;5011545;28;20428;-47
2023/04/10 06:42:34;;;;;;;23.48;11.65;;;11.00;99.90;;;;;;5010999;28;20036;-45
2023/04/10 06:45:00;;;;;;;26.67;11.95;;;11.00;99.90;;;;;;5009965;28;20030;-44
2023/04/10 06:47:25;;;;;;;24.30;12.70;;;11.00;99.90;;;;;;5011174;28;20022;-45
2023/04/10 06:49:51;;;;;;;19.10;13.25;;;11.00;99.90;;;;;;5011208;28;20028;-46
2023/04/10 06:52:17;;;;;;;20.42;12.55;;;11.10;99.90;;;;;;5011058;28;20030;-48
2023/04/10 06:54:43;;;;;;;21.00;12.15;;;11.10;99.90;;;;;;5011143;28;20120;-45
2023/04/10 06:57:08;;;;;;;22.30;11.43;;;11.10;99.90;;;;;;5010812;28;20034;-45
2023/04/10 06:59:34;;;;;;;21.70;11.73;;;11.10;99.90;;;;;;5011347;28;20066;-53
2023/04/10 07:02:01;;;;;;;17.95;11.68;;;11.10;99.90;;;;;;5011143;28;20053;-45
2023/04/10 07:04:27;;;;;;;18.80;10.90;;;11.10;99.90;;;;;;5010933;28;20018;-46
2023/04/10 07:06:52;;;;;;;18.63;10.70;;;11.10;99.90;;;;;;5008976;28;20038;-45
2023/04/10 07:09:18;;;;;;;17.65;10.20;;;11.10;99.90;;;;;;5010773;28;20022;-48
2023/04/10 07:11:44;;;;;;;17.83;9.73;;;11.10;99.90;;;;;;5010650;28;20393;-45
2023/04/10 07:14:10;;;;;;;16.27;10.10;;;11.00;99.90;;;;;;5010681;28;20061;-45
2023/04/10 07:16:36;;;;;;;16.75;9.35;;;11.10;99.90;;;;;;5010800;28;20108;-46
2023/04/10 07:19:01;;;;;;;15.00;8.73;;;11.10;99.90;;;;;;5009867;28;20033;-48
2023/04/10 07:21:27;;;;;;;15.55;8.77;;;11.10;99.90;;;;;;5010613;28;20018;-45
2023/04/10 07:23:53;;;;;;;14.77;8.48;;;11.10;99.90;;;;;;5010959;28;20088;-45
2023/04/10 07:26:19;;;;;;;12.65;7.82;;;11.10;99.90;;;;;;5010712;28;20088;-45
2023/04/10 07:28:45;;;;;;;14.50;8.02;;;11.00;99.90;;;;;;5009469;28;20022;-45
2023/04/10 07:31:11;;;;;;;13.82;7.78;;;11.00;99.90;;;;;;5010972;28;20032;-45
2023/04/10 07:33:37;;;;;;;14.10;8.15;;;11.10;99.90;;;;;;5010865;28;20488;-45
2023/04/10 07:36:04;;;;;;;15.25;7.43;;;11.00;99.90;;;;;;5010862;28;20033;-55
2023/04/10 07:38:31;;;;;;;13.32;7.07;;;11.00;99.90;;;;;;5010749;28;20037;-54
2023/04/10 07:40:59;;;;;;;19.67;7.25;;;11.10;99.90;;;;;;5010474;28;20075;-45
2023/04/10 07:43:25;;;;;;;13.52;7.65;;;11.10;99.90;;;;;;5010715;28;20496;-45
2023/04/10 07:45:51;;;;;;;14.10;6.95;;;11.00;99.90;;;;;;5010568;28;20038;-45
2023/04/10 07:48:17;;;;;;;10.68;6.35;;;11.10;99.90;;;;;;5010638;28;20022;-47
2023/04/10 07:50:42;;;;;;;16.48;6.68;;;11.10;99.90;;;;;;5010549;28;20065;-45
2023/04/10 07:53:08;;;;;;;11.75;6.40;;;11.10;99.90;;;;;;5010423;28;20069;-46
2023/04/10 07:55:44;;;;;;;13.80;6.00;;;11.10;99.90;;;;;;5010618;28;20042;-47
2023/04/10 07:58:10;;;;;;;13.88;6.47;;;11.00;99.90;;;;;;5010623;28;20029;-46
2023/04/10 08:00:36;;;;;;;10.43;5.90;;;11.00;99.90;;;;;;5010453;28;20094;-51
2023/04/10 08:03:03;;;;;;;12.02;6.10;;;11.00;99.90;;;;;;5010466;28;20110;-48
2023/04/10 08:05:29;;;;;;;10.70;5.90;;;11.00;99.90;;;;;;5010596;28;20037;-46
2023/04/10 08:07:55;;;;;;;11.60;6.18;;;10.90;99.90;;;;;;5010128;28;20049;-46
2023/04/10 08:10:21;;;;;;;13.80;6.10;;;11.00;99.90;;;;;;5010379;28;20029;-45
2023/04/10 08:12:46;;;;;;;13.90;6.30;;;10.90;99.90;;;;;;5010415;28;20053;-46
2023/04/10 08:15:12;;;;;;;19.73;6.15;;;10.90;99.90;;;;;;5010469;28;20393;-45
2023/04/10 08:17:38;;;;;;;15.40;6.07;;;10.90;99.90;;;;;;5011805;28;20041;-45
2023/04/10 08:20:04;;;;;;;11.57;5.75;;;11.00;99.90;;;;;;5014057;28;20030;-48
2023/04/10 08:22:29;;;;;;;11.88;5.68;;;10.90;99.90;;;;;;5013836;28;20044;-47
2023/04/10 08:24:55;;;;;;;11.52;5.38;;;10.90;99.90;;;;;;5013611;28;20104;-47
2023/04/10 08:27:21;;;;;;;13.05;5.43;;;10.90;99.90;;;;;;5013998;28;20018;-50
2023/04/10 08:29:46;;;;;;;12.00;5.00;;;10.90;99.90;;;;;;5013723;28;20033;-53
2023/04/10 08:32:12;;;;;;;13.48;4.97;;;10.90;99.90;;;;;;5013618;28;20021;-46
2023/04/10 08:34:38;;;;;;;14.68;4.97;;;10.90;99.90;;;;;;5013591;28;20061;-47
2023/04/10 08:37:09;;;;;;;10.18;4.97;;;10.90;99.90;;;;;;5013594;28;20029;-44
2023/04/10 08:39:35;;;;;;;12.65;5.28;;;10.90;99.90;;;;;;5012942;28;20022;-51
2023/04/10 08:42:02;;;;;;;11.52;5.13;;;10.90;99.90;;;;;;5013354;28;20044;-48
2023/04/10 08:44:28;;;;;;;12.90;4.78;;;10.90;99.90;;;;;;5013347;28;20080;-50
2023/04/10 08:46:58;;;;;;;14.23;5.20;;;11.00;99.90;;;;;;5013465;28;20034;-47
2023/04/10 08:49:27;;;;;;;9.38;4.55;;;11.00;99.90;;;;;;5014005;28;20022;-46
2023/04/10 08:51:58;;;;;;;16.65;5.28;;;11.10;99.90;;;;;;5013158;28;20048;-45
2023/04/10 08:54:33;;;;;;;10.77;4.60;;;11.10;99.90;;;;;;5013258;28;20060;-46
2023/04/10 08:57:00;;;;;;;11.13;5.55;;;11.10;99.90;;;;;;5013372;28;20029;-44
2023/04/10 08:59:30;;;;;;;14.18;5.07;;;11.00;99.90;;;;;;5013255;28;20032;-44
2023/04/10 09:01:56;;;;;;;11.18;5.22;;;10.90;99.90;;;;;;5013262;28;20097;-44
2023/04/10 09:04:25;;;;;;;11.02;4.80;;;10.90;99.90;;;;;;5013129;28;20057;-45
2023/04/10 09:06:52;;;;;;;11.07;4.63;;;10.90;99.90;;;;;;5013049;28;20111;-47
2023/04/10 09:09:18;;;;;;;10.13;4.80;;;10.80;99.90;;;;;;5012935;28;20109;-44
2023/04/10 09:11:55;;;;;;;10.65;4.47;;;10.80;99.90;;;;;;5001511;28;20502;-43
2023/04/10 09:14:21;;;;;;;9.40;4.45;;;10.70;99.90;;;;;;5011934;28;20100;-43
2023/04/10 09:16:47;;;;;;;12.10;3.97;;;10.80;99.90;;;;;;5004320;28;20029;-44
2023/04/10 09:19:27;;;;;;;8.48;4.05;;;10.80;99.90;;;;;;5007870;28;20381;-42
2023/04/10 09:21:54;;;;;;;9.98;3.92;;;10.80;99.90;;;;;;5006729;28;20032;-45
2023/04/10 09:24:20;;;;;;;6.13;3.20;;;10.80;99.90;;;;;;5012717;28;20018;-43
2023/04/10 09:26:45;;;;;;;11.00;3.03;;;10.80;99.90;;;;;;5012483;28;20079;-44
2023/04/10 09:29:11;;;;;;;5.65;3.22;;;10.80;99.90;;;;;;5011703;28;20071;-43
2023/04/10 09:31:38;;;;;;;6.70;2.60;;;10.70;99.90;;;;;;5010487;28;20393;-46
2023/04/10 09:34:21;;;;;;;7.53;3.13;;;10.80;99.90;;;;;;4999385;28;20030;-44
2023/04/10 09:36:55;;;;;;;7.15;2.80;;;10.80;99.90;;;;;;5007932;28;20069;-45
2023/04/10 09:39:21;;;;;;;7.22;2.97;;;10.80;99.90;;;;;;5012499;28;20029;-47
2023/04/10 09:41:51;;;;;;;7.75;2.70;;;10.80;99.90;;;;;;5010967;28;20032;-45
2023/04/10 09:44:26;;;;;;;6.30;2.45;;;10.80;99.90;;;;;;5006953;28;20091;-46
2023/04/10 09:46:52;;;;;;;7.25;3.00;;;10.90;99.90;;;;;;5011730;28;20070;-46
2023/04/10 09:49:18;;;;;;;10.18;2.92;;;10.90;99.90;;;;;;5012262;28;20120;-45
2023/04/10 09:51:44;;;;;;;6.47;2.50;;;10.90;99.90;;;;;;5012031;28;20117;-47
2023/04/10 09:54:10;;;;;;;6.05;2.78;;;10.90;99.90;;;;;;5010830;28;20018;-45
2023/04/10 09:56:38;;;;;;;10.05;3.40;;;11.00;99.90;;;;;;5011638;28;20132;-45
2023/04/10 09:59:05;;;;;;;7.65;3.10;;;11.00;99.90;;;;;;5011944;28;20029;-47
2023/04/10 10:01:33;;;;;;;8.32;2.85;;;10.90;99.90;;;;;;5011776;28;20504;-45
2023/04/10 10:04:03;;;;;;;9.07;3.20;;;10.90;99.90;;;;;;5011386;28;20037;-45
2023/04/10 10:06:33;;;;;;;5.82;2.88;;;10.90;99.90;;;;;;5010450;28;20080;-47
2023/04/10 10:09:04;;;;;;;10.40;3.30;;;11.00;99.90;;;;;;5011984;28;20067;-45
2023/04/10 10:11:34;;;;;;;8.52;3.72;;;10.90;99.90;;;;;;5011953;28;20156;-45
2023/04/10 10:14:03;;;;;;;10.20;3.80;;;11.00;99.90;;;;;;5004736;28;20022;-49
2023/04/10 10:16:32;;;;;;;11.27;3.50;;;11.00;99.90;;;;;;5011591;28;20037;-46
2023/04/10 10:19:11;;;;;;;10.45;3.28;;;11.00;99.90;;;;;;5011546;28;20362;-46
2023/04/10 10:21:37;;;;;;;5.35;2.92;;;11.00;99.90;;;;;;5010930;28;20511;-48
2023/04/10 10:24:07;;;;;;;10.20;5.72;;;11.00;99.90;;;;;;5011704;28;20026;-47
2023/04/10 10:26:34;;;;;;;9.80;3.83;;;11.10;99.90;;;;;;5011526;28;20029;-45
2023/04/10 10:29:04;;;;;;;9.75;3.35;;;11.10;99.90;;;;;;5011473;28;20057;-46
2023/04/10 10:31:32;;;;;;;10.05;3.92;;;11.10;99.90;;;;;;5011516;28;20044;-45
2023/04/10 10:34:08;;;;;;;11.52;3.85;;;11.10;99.90;;;;;;5010828;28;20358;-43
2023/04/10 10:36:35;;;;;;;8.40;3.38;;;11.20;99.90;;;;;;5011444;28;20518;-43
2023/04/10 10:39:33;;;;;;;11.02;4.18;;;11.20;99.90;;;;;;5011333;28;20033;-50
2023/04/10 10:42:20;;;;;;;8.50;3.53;;;11.20;99.90;;;;;;5011061;28;20041;-50
2023/04/10 10:44:56;;;;;;;10.65;3.78;;;11.20;99.90;;;;;;5000553;28;20018;-49
2023/04/10 10:47:26;;;;;;;8.68;3.67;;;11.20;99.90;;;;;;5009794;28;20108;-45
2023/04/10 10:49:57;;;;;;;7.63;3.90;;;11.20;99.90;;;;;;5010966;28;20026;-42
2023/04/10 10:52:39;;;;;;;14.68;4.80;;;11.20;99.90;;;;;;5009524;28;20073;-45
2023/04/10 10:55:24;;;;;;;10.35;3.90;;;11.20;99.90;;;;;;5000978;28;20489;-46
2023/04/10 10:58:00;;;;;;;11.95;4.45;;;11.30;99.90;;;;;;5010794;28;20037;-44
2023/04/10 11:00:46;;;;;;;16.15;4.38;;;11.30;99.90;;;;;;5010868;28;20078;-47
2023/04/10 11:03:14;;;;;;;12.20;4.40;;;11.30;99.90;;;;;;5008170;28;20034;-46
2023/04/10 11:05:54;;;;;;;14.53;6.23;;;11.40;99.90;;;;;;5011000;28;20412;-45
2023/04/10 11:08:50;;;;;;;11.45;4.88;;;11.30;99.90;;;;;;4999519;28;20029;-45
2023/04/10 11:11:22;;;;;;;12.23;5.43;;;11.40;99.90;;;;;;5010087;28;20531;-44
2023/04/10 11:13:56;;;;;;;17.75;5.60;;;11.40;99.90;;;;;;5010786;28;20470;-44
2023/04/10 11:16:35;;;;;;;19.50;6.85;;;11.40;99.90;;;;;;5009079;28;20068;-45
2023/04/10 11:19:06;;;;;;;20.02;6.10;;;11.40;99.90;;;;;;5010886;28;20030;-45
2023/04/10 11:21:33;;;;;;;16.98;6.68;;;11.40;99.90;;;;;;5010743;28;20080;-46
2023/04/10 11:23:59;;;;;;;24.42;6.20;;;11.50;99.90;;;;;;5010976;28;20061;-47
2023/04/10 11:26:43;;;;;;;25.13;6.63;;;11.50;99.90;;;;;;5010795;28;20484;-47
2023/04/10 11:29:11;;;;;;;26.27;7.75;;;11.50;99.90;;;;;;5002129;28;20144;-49
2023/04/10 11:31:37;;;;;;;23.55;7.68;;;11.60;99.90;;;;;;5010646;28;20022;-45
2023/04/10 11:34:06;;;;;;;27.55;7.90;;;11.60;99.90;;;;;;5010819;28;20030;-44
2023/04/10 11:36:33;;;;;;;27.35;6.65;;;11.70;99.90;;;;;;5010598;28;20477;-45
2023/04/10 11:39:07;;;;;;;29.77;6.70;;;11.60;99.90;;;;;;5010682;28;20034;-50
2023/04/10 11:41:41;;;;;;;28.73;7.05;;;11.70;99.90;;;;;;5010835;28;20029;-52
2023/04/10 11:44:09;;;;;;;28.55;6.90;;;11.70;99.90;;;;;;5010465;28;20477;-45
2023/04/10 11:46:39;;;;;;;35.63;6.72;;;11.80;99.90;;;;;;5009497;28;20045;-45
2023/04/10 11:49:08;;;;;;;28.00;6.63;;;11.80;99.90;;;;;;5019706;28;20029;-48
2023/04/10 11:51:34;;;;;;;28.35;6.45;;;11.80;99.90;;;;;;5013603;28;20026;-46
2023/04/10 11:54:14;;;;;;;27.70;6.13;;;11.90;99.90;;;;;;5023364;28;20393;-50
2023/04/10 11:56:42;;;;;;;23.60;5.55;;;12.10;99.90;;;;;;5029641;28;20045;-52
2023/04/10 11:59:09;;;;;;;27.40;5.20;;;12.20;99.90;;;;;;5023483;28;20025;-50
2023/04/10 12:01:45;;;;;;;20.40;4.70;;;12.20;99.90;;;;;;5016369;28;20512;-44
2023/04/10 12:04:14;;;;;;;22.52;4.47;;;12.20;99.90;;;;;;5017767;28;20029;-48
2023/04/10 12:06:44;;;;;;;30.65;5.05;;;12.30;99.90;;;;;;5015699;28;20034;-45
2023/04/10 12:09:15;;;;;;;24.33;4.75;;;12.40;99.90;;;;;;5019278;28;20034;-46
2023/04/10 12:11:55;;;;;;;29.98;5.22;;;12.50;99.90;;;;;;5017171;28;20017;-46
2023/04/10 12:14:22;;;;;;;24.33;5.38;;;12.70;99.90;;;;;;5012288;28;20526;-46
2023/04/10 12:16:49;;;;;;;27.95;5.20;;;12.60;99.90;;;;;;5017507;28;20018;-45
2023/04/10 12:19:16;;;;;;;33.22;6.85;;;12.60;99.90;;;;;;5024936;28;20114;-46
2023/04/10 12:21:45;;;;;;;28.27;4.40;;;12.50;99.90;;;;;;5022624;28;20054;-45
2023/04/10 12:24:11;;;;;;;25.33;4.65;;;12.40;99.90;;;;;;5027174;28;20500;-46
2023/04/10 12:26:37;;;;;;;24.35;5.38;;;12.50;99.90;;;;;;5019052;28;20045;-46
2023/04/10 12:29:05;;;;;;;25.08;4.68;;;12.60;99.90;;;;;;5017846;28;20080;-47
2023/04/10 12:31:35;;;;;;;19.75;4.00;;;12.70;99.90;;;;;;5014257;28;20472;-45
2023/04/10 12:34:04;;;;;;;29.90;5.50;;;12.90;99.90;;;;;;5027042;28;20469;-47
2023/04/10 12:36:30;;;;;;;26.90;4.65;;;13.00;99.90;;;;;;5024349;28;20029;-45
2023/04/10 12:38:58;;;;;;;24.60;4.43;;;13.00;99.90;;;;;;5012146;28;20022;-49
2023/04/10 12:41:28;;;;;;;24.17;4.80;;;13.00;99.90;;;;;;5013453;28;20026;-48